createdAt,value
2023-01-20T00:01:37.206Z,9.20
2023-01-20T00:04:05.480Z,7.20
2023-01-20T00:06:32.702Z,5.90
2023-01-20T00:09:02.381Z,5.70
2023-01-20T00:11:29.825Z,7.60
2023-01-20T00:13:59.711Z,4.50
2023-01-20T00:16:27.370Z,6.70
2023-01-20T00:18:54.927Z,8.50
2023-01-20T00:21:22.894Z,8.70
2023-01-20T00:23:50.512Z,10.50
2023-01-20T00:26:20.808Z,11.00
2023-01-20T00:28:49.148Z,13.00
2023-01-20T00:31:27.116Z,8.60
2023-01-20T00:33:57.647Z,6.90
2023-01-20T00:36:27.335Z,10.70
2023-01-20T00:38:54.682Z,10.00
2023-01-20T00:41:22.183Z,5.60
2023-01-20T00:43:49.691Z,6.10
2023-01-20T00:46:16.975Z,10.80
2023-01-20T00:48:44.236Z,7.30
2023-01-20T00:51:11.374Z,6.80
2023-01-20T00:53:38.717Z,8.30
2023-01-20T00:56:06.370Z,5.30
2023-01-20T00:58:34.002Z,3.80
2023-01-20T01:01:01.549Z,14.10
2023-01-20T01:03:28.936Z,8.90
2023-01-20T01:06:12.622Z,8.90
2023-01-20T01:08:41.177Z,5.00
2023-01-20T01:11:09.050Z,17.40
2023-01-20T01:13:38.015Z,6.80
2023-01-20T01:16:11.230Z,8.30
2023-01-20T01:18:38.646Z,9.70
2023-01-20T01:21:11.975Z,7.90
2023-01-20T01:23:39.113Z,12.30
2023-01-20T01:26:06.148Z,14.10
2023-01-20T01:28:33.286Z,6.70
2023-01-20T01:31:02.390Z,9.30
2023-01-20T01:33:30.180Z,10.40
2023-01-20T01:35:59.318Z,7.40
2023-01-20T01:38:27.709Z,19.00
2023-01-20T01:40:55.578Z,10.70
2023-01-20T01:43:30.342Z,13.50
2023-01-20T01:45:57.949Z,11.30
2023-01-20T01:48:44.845Z,15.10
2023-01-20T01:51:25.250Z,11.70
2023-01-20T01:54:22.869Z,12.50
2023-01-20T01:56:50.823Z,11.00
2023-01-20T01:59:19.251Z,12.90
2023-01-20T02:01:52.094Z,11.70
2023-01-20T02:04:25.578Z,15.30
2023-01-20T02:07:20.197Z,7.00
2023-01-20T02:09:47.496Z,10.20
2023-01-20T02:12:20.383Z,6.80
2023-01-20T02:14:55.850Z,8.50
2023-01-20T02:17:36.123Z,10.70
2023-01-20T02:20:36.347Z,14.20
2023-01-20T02:23:38.401Z,7.50
2023-01-20T02:26:32.873Z,10.70
2023-01-20T02:29:43.160Z,14.70
2023-01-20T02:32:26.657Z,16.60
2023-01-20T02:35:12.566Z,14.50
2023-01-20T02:38:18.361Z,11.50
2023-01-20T02:40:57.009Z,6.90
2023-01-20T02:43:38.064Z,7.50
2023-01-20T02:46:24.899Z,14.90
2023-01-20T02:49:09.588Z,23.20
2023-01-20T02:54:34.676Z,17.80
2023-01-20T02:57:05.858Z,18.60
2023-01-20T02:59:41.572Z,15.80
2023-01-20T03:02:22.677Z,15.50
2023-01-20T03:05:06.860Z,17.40
2023-01-20T03:07:37.618Z,15.40
2023-01-20T03:10:10.199Z,18.10
2023-01-20T03:12:48.344Z,10.30
2023-01-20T03:15:16.863Z,15.10
2023-01-20T03:17:44.175Z,6.60
2023-01-20T03:20:12.009Z,11.80
2023-01-20T03:22:39.215Z,9.40
2023-01-20T03:25:08.127Z,6.30
2023-01-20T03:27:35.376Z,8.10
2023-01-20T03:30:05.574Z,15.70
2023-01-20T03:32:32.771Z,12.10
2023-01-20T03:34:59.970Z,12.20
2023-01-20T03:37:27.216Z,7.10
2023-01-20T03:39:54.366Z,8.30
2023-01-20T03:42:39.167Z,9.50
2023-01-20T03:45:28.202Z,14.00
2023-01-20T03:48:09.084Z,11.70
2023-01-20T03:51:32.828Z,7.20
2023-01-20T03:54:06.643Z,9.60
2023-01-20T03:56:50.924Z,10.50
2023-01-20T03:59:20.271Z,10.40
2023-01-20T04:01:48.417Z,11.40
2023-01-20T04:04:18.966Z,18.60
2023-01-20T04:06:49.688Z,12.10
2023-01-20T04:09:24.503Z,11.00
2023-01-20T04:11:51.847Z,8.00
2023-01-20T04:14:19.056Z,10.00
2023-01-20T04:16:54.304Z,10.00
2023-01-20T04:19:21.635Z,11.40
2023-01-20T04:21:55.613Z,13.30
2023-01-20T04:24:37.055Z,10.60
2023-01-20T04:27:04.181Z,10.60
2023-01-20T04:29:31.252Z,9.60
2023-01-20T04:32:00.736Z,11.40
2023-01-20T04:34:28.079Z,9.30
2023-01-20T04:36:55.258Z,10.70
2023-01-20T04:39:22.466Z,14.00
2023-01-20T04:41:49.880Z,11.80
2023-01-20T04:44:17.088Z,13.90
2023-01-20T04:46:44.950Z,12.60
2023-01-20T04:49:12.005Z,10.70
2023-01-20T04:51:39.222Z,9.80
2023-01-20T04:54:06.537Z,12.40
2023-01-20T04:56:33.700Z,8.50
2023-01-20T04:59:00.797Z,8.60
2023-01-20T05:01:27.963Z,9.60
2023-01-20T05:03:55.158Z,17.30
2023-01-20T05:06:22.254Z,9.20
2023-01-20T05:08:49.326Z,10.20
2023-01-20T05:11:16.486Z,8.20
2023-01-20T05:13:43.612Z,10.30
2023-01-20T05:16:10.956Z,12.70
2023-01-20T05:18:38.170Z,14.20
2023-01-20T05:21:07.369Z,17.70
2023-01-20T05:23:35.008Z,10.40
2023-01-20T05:26:02.212Z,6.90
2023-01-20T05:28:29.477Z,8.30
2023-01-20T05:30:56.734Z,13.50
2023-01-20T05:33:23.877Z,10.10
2023-01-20T05:35:50.970Z,8.80
2023-01-20T05:38:18.001Z,12.70
2023-01-20T05:40:45.140Z,11.60
2023-01-20T05:43:13.084Z,12.30
2023-01-20T05:45:41.780Z,12.70
2023-01-20T05:48:08.909Z,10.00
2023-01-20T05:50:36.060Z,9.60
2023-01-20T05:53:03.117Z,10.10
2023-01-20T05:55:30.226Z,11.00
2023-01-20T05:58:01.291Z,9.60
2023-01-20T06:00:28.719Z,7.60
2023-01-20T06:02:55.974Z,7.90
2023-01-20T06:05:23.169Z,14.10
2023-01-20T06:07:50.474Z,10.00
2023-01-20T06:10:17.789Z,10.10
2023-01-20T06:12:52.396Z,12.30
2023-01-20T06:15:20.037Z,8.30
2023-01-20T06:17:47.177Z,16.50
2023-01-20T06:20:14.297Z,8.70
2023-01-20T06:22:41.479Z,10.20
2023-01-20T06:25:08.890Z,10.10
2023-01-20T06:27:36.931Z,12.40
2023-01-20T06:30:05.933Z,10.10
2023-01-20T06:32:33.081Z,8.40
2023-01-20T06:35:00.206Z,9.40
2023-01-20T06:37:27.398Z,8.90
2023-01-20T06:39:54.490Z,9.90
2023-01-20T06:42:21.512Z,11.00
2023-01-20T06:44:48.566Z,13.40
2023-01-20T06:47:15.662Z,6.30
2023-01-20T06:49:42.825Z,9.50
2023-01-20T06:52:09.881Z,10.80
2023-01-20T06:54:37.025Z,13.70
2023-01-20T06:57:04.442Z,8.70
2023-01-20T06:59:31.558Z,9.00
2023-01-20T07:01:58.874Z,9.20
2023-01-20T07:04:26.093Z,9.60
2023-01-20T07:06:53.221Z,8.10
2023-01-20T07:09:20.319Z,7.80
2023-01-20T07:11:47.423Z,11.40
2023-01-20T07:14:14.457Z,13.10
2023-01-20T07:16:41.581Z,14.50
2023-01-20T07:19:08.755Z,7.80
2023-01-20T07:21:36.100Z,6.30
2023-01-20T07:24:03.662Z,11.10
2023-01-20T07:26:31.283Z,12.20
2023-01-20T07:28:59.195Z,10.30
2023-01-20T07:31:30.730Z,10.50
2023-01-20T07:33:57.957Z,6.60
2023-01-20T07:36:25.346Z,12.40
2023-01-20T07:38:53.139Z,8.60
2023-01-20T07:41:22.687Z,10.40
2023-01-20T07:43:51.811Z,12.70
2023-01-20T07:46:20.430Z,8.40
2023-01-20T07:48:47.827Z,11.70
2023-01-20T07:51:16.653Z,8.10
2023-01-20T07:53:47.595Z,14.10
2023-01-20T07:56:27.123Z,11.90
2023-01-20T07:58:54.966Z,12.40
2023-01-20T08:01:30.428Z,7.90
2023-01-20T08:04:02.337Z,10.00
2023-01-20T08:06:30.088Z,16.50
2023-01-20T08:09:01.071Z,14.70
2023-01-20T08:11:28.858Z,15.10
2023-01-20T08:13:55.943Z,11.50
2023-01-20T08:16:23.236Z,12.30
2023-01-20T08:18:53.589Z,13.30
2023-01-20T08:21:26.054Z,9.80
2023-01-20T08:23:55.785Z,11.80
2023-01-20T08:26:27.316Z,12.50
2023-01-20T08:28:55.548Z,13.80
2023-01-20T08:31:24.348Z,12.10
2023-01-20T08:33:55.450Z,13.20
2023-01-20T08:36:28.608Z,14.90
2023-01-20T08:38:58.044Z,11.50
2023-01-20T08:41:30.042Z,10.20
2023-01-20T08:43:59.948Z,9.90
2023-01-20T08:46:27.600Z,10.20
2023-01-20T08:48:55.654Z,12.20
2023-01-20T08:51:41.485Z,10.80
2023-01-20T08:54:28.794Z,10.60
2023-01-20T08:56:56.022Z,10.40
2023-01-20T08:59:23.250Z,10.40
2023-01-20T09:01:50.460Z,10.40
2023-01-20T09:04:17.555Z,9.70
2023-01-20T09:06:49.646Z,11.00
2023-01-20T09:09:19.511Z,10.70
2023-01-20T09:11:50.428Z,9.30
2023-01-20T09:14:23.260Z,8.60
2023-01-20T09:16:50.918Z,10.60
2023-01-20T09:19:18.218Z,10.20
2023-01-20T09:21:45.335Z,16.50
2023-01-20T09:24:12.444Z,11.80
2023-01-20T09:26:39.716Z,9.20
2023-01-20T09:29:15.388Z,11.20
2023-01-20T09:31:48.871Z,9.30
2023-01-20T09:34:26.857Z,9.40
2023-01-20T09:37:20.411Z,7.30
2023-01-20T09:40:06.261Z,11.90
2023-01-20T09:43:16.589Z,7.30
2023-01-20T09:46:24.365Z,11.70
2023-01-20T09:49:48.408Z,6.60
2023-01-20T09:52:51.891Z,11.00
2023-01-20T09:55:48.008Z,6.00
2023-01-20T09:58:48.801Z,7.50
2023-01-20T10:01:31.151Z,7.00
2023-01-20T10:04:29.294Z,8.80
2023-01-20T10:07:42.562Z,9.00
2023-01-20T10:10:29.177Z,10.30
2023-01-20T10:13:08.196Z,9.10
2023-01-20T10:15:37.448Z,11.90
2023-01-20T10:18:34.948Z,12.90
2023-01-20T10:21:19.276Z,10.80
2023-01-20T10:23:55.548Z,8.50
2023-01-20T10:26:34.469Z,8.70
2023-01-20T10:29:03.844Z,9.60
2023-01-20T10:31:37.494Z,10.90
2023-01-20T10:34:15.312Z,8.20
2023-01-20T10:36:50.156Z,7.90
2023-01-20T10:39:46.513Z,8.90
2023-01-20T10:42:19.694Z,7.60
2023-01-20T10:44:50.635Z,9.20
2023-01-20T10:47:17.695Z,13.50
2023-01-20T10:49:48.957Z,7.00
2023-01-20T10:53:05.955Z,10.10
2023-01-20T10:55:57.218Z,7.00
2023-01-20T10:58:37.388Z,11.90
2023-01-20T11:01:08.720Z,8.40
2023-01-20T11:03:40.388Z,9.00
2023-01-20T11:06:16.816Z,8.40
2023-01-20T11:08:44.538Z,9.20
2023-01-20T11:11:17.442Z,9.50
2023-01-20T11:13:45.192Z,6.60
2023-01-20T11:16:20.074Z,5.70
2023-01-20T11:19:06.965Z,10.20
2023-01-20T11:21:36.433Z,8.70
2023-01-20T11:24:43.247Z,10.10
2023-01-20T11:27:21.816Z,5.90
2023-01-20T11:30:01.584Z,7.50
2023-01-20T11:32:33.693Z,12.50
2023-01-20T11:35:21.953Z,12.30
2023-01-20T11:37:49.359Z,11.40
2023-01-20T11:40:23.967Z,13.80
2023-01-20T11:42:53.408Z,11.40
2023-01-20T11:45:35.629Z,10.80
2023-01-20T11:48:17.811Z,8.30
2023-01-20T11:50:53.805Z,11.20
2023-01-20T11:53:24.233Z,9.80
2023-01-20T11:55:56.701Z,6.60
2023-01-20T11:58:27.821Z,7.90
2023-01-20T12:01:05.433Z,8.80
2023-01-20T12:03:51.850Z,8.50
2023-01-20T12:06:25.284Z,8.70
2023-01-20T12:09:05.058Z,9.50
2023-01-20T12:11:55.087Z,9.50
2023-01-20T12:14:41.821Z,7.20
2023-01-20T12:17:38.086Z,10.70
2023-01-20T12:20:26.930Z,5.50
2023-01-20T12:22:58.616Z,7.50
2023-01-20T12:25:31.540Z,6.40
2023-01-20T12:28:24.468Z,8.10
2023-01-20T12:31:19.825Z,6.30
2023-01-20T12:33:51.217Z,9.40
2023-01-20T12:36:40.428Z,8.90
2023-01-20T12:39:33.754Z,12.90
2023-01-20T12:42:32.766Z,7.90
2023-01-20T12:45:13.339Z,7.90
2023-01-20T12:48:24.925Z,5.80
2023-01-20T12:51:20.342Z,6.10
2023-01-20T12:54:27.135Z,8.50
2023-01-20T12:57:17.324Z,7.60
2023-01-20T13:00:41.054Z,7.40
2023-01-20T13:03:26.219Z,6.90
2023-01-20T13:06:34.209Z,8.00
2023-01-20T13:09:31.879Z,6.80
2023-01-20T13:12:18.436Z,9.20
2023-01-20T13:14:52.549Z,7.70
2023-01-20T13:17:38.486Z,7.20
2023-01-20T13:20:19.120Z,6.70
2023-01-20T13:22:46.257Z,9.10
2023-01-20T13:25:16.571Z,8.90
2023-01-20T13:27:44.922Z,7.00
2023-01-20T13:30:42.395Z,8.50
2023-01-20T13:33:33.801Z,5.00
2023-01-20T13:36:23.377Z,6.60
2023-01-20T13:39:40.235Z,5.80
2023-01-20T13:42:36.311Z,7.80
2023-01-20T13:45:12.607Z,11.70
2023-01-20T13:48:07.628Z,8.10
2023-01-20T13:50:39.109Z,6.90
2023-01-20T13:53:20.078Z,7.10
2023-01-20T13:55:47.813Z,9.60
2023-01-20T13:58:15.379Z,8.70
2023-01-20T14:00:43.710Z,5.90
2023-01-20T14:03:19.388Z,7.10
2023-01-20T14:05:52.623Z,11.70
2023-01-20T14:08:21.169Z,9.60
2023-01-20T14:10:48.766Z,8.80
2023-01-20T14:13:22.627Z,8.30
2023-01-20T14:15:55.562Z,13.70
2023-01-20T14:18:25.844Z,18.10
2023-01-20T14:21:04.235Z,11.40
2023-01-20T14:23:35.308Z,14.50
2023-01-20T14:26:11.386Z,14.90
2023-01-20T14:28:51.334Z,11.60
2023-01-20T14:31:32.508Z,19.60
2023-01-20T14:34:22.231Z,17.40
2023-01-20T14:36:49.991Z,19.60
2023-01-20T14:39:24.544Z,14.20
2023-01-20T14:42:00.238Z,18.00
2023-01-20T14:44:32.614Z,14.80
2023-01-20T14:47:02.889Z,14.10
2023-01-20T14:49:41.043Z,19.30
2023-01-20T14:52:37.294Z,15.70
2023-01-20T14:55:04.998Z,19.50
2023-01-20T14:57:39.943Z,17.90
2023-01-20T15:00:19.623Z,17.90
2023-01-20T15:03:14.879Z,17.70
2023-01-20T15:06:05.107Z,14.00
2023-01-20T15:08:32.273Z,18.20
2023-01-20T15:11:20.771Z,13.20
2023-01-20T15:13:50.924Z,16.20
2023-01-20T15:16:35.987Z,16.80
2023-01-20T15:19:15.701Z,13.50
2023-01-20T15:21:47.923Z,14.30
2023-01-20T15:24:21.239Z,15.40
2023-01-20T15:26:53.822Z,17.20
2023-01-20T15:29:36.280Z,11.30
2023-01-20T15:32:11.772Z,14.50
2023-01-20T15:34:38.897Z,15.40
2023-01-20T15:37:18.068Z,18.70
2023-01-20T15:39:45.354Z,16.80
2023-01-20T15:42:14.653Z,17.80
2023-01-20T15:44:41.844Z,23.00
2023-01-20T15:47:30.780Z,19.80
2023-01-20T15:49:58.305Z,17.30
2023-01-20T15:52:25.898Z,13.40
2023-01-20T15:54:53.100Z,20.20
2023-01-20T15:57:20.272Z,12.90
2023-01-20T15:59:49.158Z,13.20
2023-01-20T16:02:22.112Z,14.40
2023-01-20T16:04:49.876Z,21.20
2023-01-20T16:07:19.951Z,20.20
2023-01-20T16:09:47.513Z,13.40
2023-01-20T16:12:17.013Z,26.40
2023-01-20T16:14:45.202Z,22.00
2023-01-20T16:17:21.435Z,18.90
2023-01-20T16:19:49.523Z,18.60
2023-01-20T16:22:16.889Z,19.60
2023-01-20T16:24:44.131Z,20.10
2023-01-20T16:27:19.476Z,20.50
2023-01-20T16:29:47.326Z,19.00
2023-01-20T16:32:17.120Z,17.20
2023-01-20T16:34:46.118Z,15.60
2023-01-20T16:37:13.920Z,19.10
2023-01-20T16:39:41.118Z,19.70
2023-01-20T16:42:15.685Z,18.90
2023-01-20T16:44:42.827Z,18.60
2023-01-20T16:47:09.912Z,16.20
2023-01-20T16:49:38.020Z,19.80
2023-01-20T16:52:05.405Z,21.10
2023-01-20T16:54:32.509Z,18.60
2023-01-20T16:56:59.541Z,22.10
2023-01-20T16:59:26.638Z,19.80
2023-01-20T17:01:53.724Z,24.20
2023-01-20T17:04:20.966Z,19.00
2023-01-20T17:06:47.995Z,18.80
2023-01-20T17:09:15.107Z,20.30
2023-01-20T17:11:42.188Z,22.20
2023-01-20T17:14:10.806Z,23.30
2023-01-20T17:16:38.965Z,19.40
2023-01-20T17:19:06.293Z,22.70
2023-01-20T17:21:37.555Z,21.30
2023-01-20T17:24:05.638Z,19.10
2023-01-20T17:26:33.097Z,17.50
2023-01-20T17:29:03.351Z,16.70
2023-01-20T17:31:33.760Z,21.30
2023-01-20T17:34:00.884Z,18.10
2023-01-20T17:36:29.029Z,16.60
2023-01-20T17:38:57.377Z,20.30
2023-01-20T17:41:24.465Z,20.50
2023-01-20T17:43:51.510Z,19.80
2023-01-20T17:46:23.038Z,17.30
2023-01-20T17:48:50.586Z,21.70
2023-01-20T17:51:21.115Z,23.00
2023-01-20T17:53:49.307Z,23.10
2023-01-20T17:56:18.495Z,16.50
2023-01-20T17:58:46.603Z,23.70
2023-01-20T18:01:26.933Z,22.80
2023-01-20T18:03:56.367Z,24.60
2023-01-20T18:06:25.059Z,19.60
2023-01-20T18:08:58.276Z,15.70
2023-01-20T18:11:28.842Z,20.80
2023-01-20T18:13:57.485Z,17.30
2023-01-20T18:16:29.575Z,23.10
2023-01-20T18:19:00.667Z,18.90
2023-01-20T18:21:36.702Z,15.50
2023-01-20T18:24:07.050Z,18.20
2023-01-20T18:26:37.132Z,17.50
2023-01-20T18:29:13.334Z,24.40
2023-01-20T18:31:41.113Z,26.10
2023-01-20T18:34:11.277Z,17.60
2023-01-20T18:36:41.562Z,22.30
2023-01-20T18:39:17.850Z,24.60
2023-01-20T18:41:45.217Z,22.70
2023-01-20T18:44:12.919Z,23.30
2023-01-20T18:46:40.641Z,23.90
2023-01-20T18:49:10.050Z,25.30
2023-01-20T18:51:37.099Z,21.90
2023-01-20T18:54:09.084Z,20.30
2023-01-20T18:56:36.487Z,23.80
2023-01-20T18:59:05.926Z,28.00
2023-01-20T19:01:39.091Z,20.40
2023-01-20T19:04:09.647Z,19.70
2023-01-20T19:06:40.434Z,23.70
2023-01-20T19:09:08.513Z,23.50
2023-01-20T19:11:39.269Z,22.60
2023-01-20T19:14:11.586Z,21.80
2023-01-20T19:16:44.429Z,16.20
2023-01-20T19:19:12.005Z,26.60
2023-01-20T19:21:39.143Z,16.80
2023-01-20T19:24:07.517Z,20.10
2023-01-20T19:26:37.148Z,18.30
2023-01-20T19:29:12.072Z,20.30
2023-01-20T19:31:39.785Z,25.30
2023-01-20T19:34:08.597Z,18.40
2023-01-20T19:36:36.471Z,17.00
2023-01-20T19:39:04.857Z,22.90
2023-01-20T19:41:33.819Z,22.10
2023-01-20T19:44:03.703Z,20.80
2023-01-20T19:46:34.657Z,19.50
2023-01-20T19:49:02.421Z,22.70
2023-01-20T19:51:30.785Z,26.30
2023-01-20T19:54:00.598Z,23.70
2023-01-20T19:56:31.660Z,20.80
2023-01-20T19:59:00.483Z,25.30
2023-01-20T20:01:34.135Z,16.20
2023-01-20T20:04:12.160Z,21.70
2023-01-20T20:06:48.267Z,24.50
2023-01-20T20:09:19.650Z,25.30
2023-01-20T20:11:47.992Z,29.40
2023-01-20T20:14:19.415Z,23.00
2023-01-20T20:16:47.692Z,25.60
2023-01-20T20:19:18.235Z,25.90
2023-01-20T20:21:45.654Z,19.20
2023-01-20T20:24:15.035Z,27.50
2023-01-20T20:26:45.449Z,23.20
2023-01-20T20:29:15.251Z,17.70
2023-01-20T20:31:42.825Z,29.50
2023-01-20T20:34:14.815Z,24.00
2023-01-20T20:36:41.941Z,30.40
2023-01-20T20:39:14.239Z,26.10
2023-01-20T20:41:42.237Z,25.20
2023-01-20T20:44:10.558Z,26.60
2023-01-20T20:46:37.872Z,26.60
2023-01-20T20:49:05.031Z,24.00
2023-01-20T20:51:33.602Z,22.20
2023-01-20T20:54:02.483Z,25.70
2023-01-20T20:56:33.951Z,25.10
2023-01-20T20:59:03.120Z,24.80
2023-01-20T21:01:33.605Z,26.00
2023-01-20T21:04:04.293Z,24.10
2023-01-20T21:06:32.377Z,22.00
2023-01-20T21:09:00.073Z,25.10
2023-01-20T21:11:28.143Z,22.10
2023-01-20T21:13:55.408Z,24.10
2023-01-20T21:16:24.173Z,26.10
2023-01-20T21:18:55.385Z,23.10
2023-01-20T21:21:23.363Z,26.00
2023-01-20T21:23:54.438Z,18.30
2023-01-20T21:26:24.342Z,20.50
2023-01-20T21:28:52.497Z,29.90
2023-01-20T21:31:22.795Z,21.60
2023-01-20T21:33:59.853Z,25.60
2023-01-20T21:36:31.389Z,23.60
2023-01-20T21:39:00.277Z,24.00
2023-01-20T21:41:28.022Z,27.30
2023-01-20T21:44:13.555Z,27.40
2023-01-20T21:46:40.816Z,29.00
2023-01-20T21:49:27.015Z,26.00
2023-01-20T21:52:13.417Z,29.90
2023-01-20T21:54:40.733Z,22.60
2023-01-20T21:57:08.414Z,28.80
2023-01-20T21:59:35.744Z,29.20
2023-01-20T22:02:03.328Z,27.40
2023-01-20T22:04:31.390Z,22.10
2023-01-20T22:06:58.432Z,19.90
2023-01-20T22:09:25.565Z,20.60
2023-01-20T22:11:52.679Z,24.20
2023-01-20T22:14:19.831Z,22.80
2023-01-20T22:16:46.941Z,15.90
2023-01-20T22:19:14.195Z,16.40
2023-01-20T22:21:41.738Z,14.00
2023-01-20T22:24:10.017Z,15.30
2023-01-20T22:26:37.101Z,18.00
2023-01-20T22:29:04.395Z,19.10
2023-01-20T22:31:33.375Z,16.40
2023-01-20T22:34:04.677Z,16.50
2023-01-20T22:36:33.150Z,16.10
2023-01-20T22:39:00.530Z,12.70
2023-01-20T22:41:27.929Z,17.10
2023-01-20T22:43:55.214Z,16.60
2023-01-20T22:46:24.819Z,9.60
2023-01-20T22:48:53.264Z,17.80
2023-01-20T22:51:23.509Z,13.30
2023-01-20T22:53:53.957Z,11.70
2023-01-20T22:56:24.843Z,12.50
2023-01-20T22:58:52.515Z,12.60
2023-01-20T23:01:23.580Z,12.10
2023-01-20T23:03:59.972Z,12.20
2023-01-20T23:06:31.193Z,13.50
2023-01-20T23:09:04.475Z,13.70
2023-01-20T23:11:33.305Z,12.80
2023-01-20T23:14:00.382Z,14.80
2023-01-20T23:16:27.789Z,15.50
2023-01-20T23:18:54.906Z,13.20
2023-01-20T23:21:22.253Z,14.60
2023-01-20T23:23:53.760Z,13.50
2023-01-20T23:26:24.332Z,12.80
2023-01-20T23:28:53.019Z,13.80
2023-01-20T23:31:21.358Z,15.60
2023-01-20T23:33:49.211Z,15.40
2023-01-20T23:36:22.307Z,11.50
2023-01-20T23:38:49.734Z,15.40
2023-01-20T23:41:16.897Z,16.90
2023-01-20T23:43:43.948Z,15.90
2023-01-20T23:46:11.346Z,18.00
2023-01-20T23:48:38.975Z,15.00
2023-01-20T23:51:06.678Z,14.30
2023-01-20T23:53:38.111Z,10.60
2023-01-20T23:56:10.316Z,16.10
2023-01-20T23:58:37.500Z,17.70
